createdAt,value
2023-01-18T00:00:25.979Z,22.65
2023-01-18T00:01:27.077Z,22.65
2023-01-18T00:02:25.888Z,22.68
2023-01-18T00:03:25.956Z,22.64
2023-01-18T00:04:25.913Z,22.65
2023-01-18T00:05:26.023Z,22.67
2023-01-18T00:06:25.855Z,22.68
2023-01-18T00:07:38.431Z,22.65
2023-01-18T00:08:25.858Z,22.62
2023-01-18T00:09:26.029Z,22.62
2023-01-18T00:10:25.814Z,22.62
2023-01-18T00:11:25.947Z,22.64
2023-01-18T00:12:25.817Z,22.62
2023-01-18T00:13:25.761Z,22.62
2023-01-18T00:14:25.726Z,22.62
2023-01-18T00:15:25.728Z,22.60
2023-01-18T00:16:25.739Z,22.60
2023-01-18T00:17:26.001Z,22.60
2023-01-18T00:18:25.897Z,22.58
2023-01-18T00:19:25.631Z,22.58
2023-01-18T00:20:25.719Z,22.58
2023-01-18T00:21:25.693Z,22.60
2023-01-18T00:22:25.638Z,22.60
2023-01-18T00:23:25.762Z,22.57
2023-01-18T00:24:25.610Z,22.58
2023-01-18T00:25:26.335Z,22.58
2023-01-18T00:26:25.607Z,22.54
2023-01-18T00:27:25.563Z,22.60
2023-01-18T00:28:25.867Z,22.57
2023-01-18T00:29:25.756Z,22.60
2023-01-18T00:30:25.562Z,22.58
2023-01-18T00:31:25.702Z,22.57
2023-01-18T00:32:25.587Z,22.58
2023-01-18T00:33:25.463Z,22.58
2023-01-18T00:34:25.504Z,22.57
2023-01-18T00:35:25.619Z,22.55
2023-01-18T00:36:25.514Z,22.55
2023-01-18T00:37:25.442Z,22.57
2023-01-18T00:38:25.446Z,22.54
2023-01-18T00:39:26.166Z,22.55
2023-01-18T00:40:26.287Z,22.54
2023-01-18T00:41:26.011Z,22.54
2023-01-18T00:42:25.323Z,22.52
2023-01-18T00:43:26.149Z,22.55
2023-01-18T00:44:25.332Z,22.51
2023-01-18T00:45:25.328Z,22.54
2023-01-18T00:46:25.351Z,22.55
2023-01-18T00:47:25.465Z,22.52
2023-01-18T00:48:25.278Z,22.54
2023-01-18T00:49:25.904Z,22.52
2023-01-18T00:50:25.264Z,22.54
2023-01-18T00:51:25.423Z,22.58
2023-01-18T00:52:25.261Z,22.51
2023-01-18T00:53:25.514Z,22.51
2023-01-18T00:54:25.225Z,22.52
2023-01-18T00:55:25.164Z,22.51
2023-01-18T00:56:26.179Z,22.52
2023-01-18T00:57:25.108Z,22.49
2023-01-18T00:58:26.282Z,22.47
2023-01-18T00:59:25.434Z,22.51
2023-01-18T01:00:25.131Z,22.47
2023-01-18T01:01:26.764Z,22.49
2023-01-18T01:02:25.274Z,22.47
2023-01-18T01:03:25.047Z,22.47
2023-01-18T01:04:25.073Z,22.45
2023-01-18T01:05:25.770Z,22.45
2023-01-18T01:06:25.043Z,22.43
2023-01-18T01:07:24.986Z,22.45
2023-01-18T01:08:24.980Z,22.45
2023-01-18T01:09:25.038Z,22.42
2023-01-18T01:10:25.025Z,22.45
2023-01-18T01:11:25.137Z,22.43
2023-01-18T01:12:25.110Z,22.43
2023-01-18T01:13:24.886Z,22.42
2023-01-18T01:14:25.757Z,22.42
2023-01-18T01:15:25.015Z,22.42
2023-01-18T01:16:25.112Z,22.42
2023-01-18T01:17:24.943Z,22.42
2023-01-18T01:18:24.855Z,22.42
2023-01-18T01:19:25.167Z,22.39
2023-01-18T01:20:24.977Z,22.40
2023-01-18T01:21:25.383Z,22.43
2023-01-18T01:22:24.783Z,22.42
2023-01-18T01:23:24.982Z,22.42
2023-01-18T01:24:24.775Z,22.40
2023-01-18T01:25:26.411Z,22.40
2023-01-18T01:26:25.581Z,22.42
2023-01-18T01:27:25.030Z,22.40
2023-01-18T01:28:24.854Z,22.39
2023-01-18T01:29:24.817Z,22.40
2023-01-18T01:30:24.683Z,22.42
2023-01-18T01:31:25.659Z,22.40
2023-01-18T01:32:24.945Z,22.40
2023-01-18T01:33:24.634Z,22.37
2023-01-18T01:34:24.655Z,22.39
2023-01-18T01:35:24.735Z,22.40
2023-01-18T01:36:24.655Z,22.39
2023-01-18T01:37:24.608Z,22.40
2023-01-18T01:38:25.096Z,22.39
2023-01-18T01:39:25.272Z,22.39
2023-01-18T01:40:24.609Z,22.37
2023-01-18T01:41:25.518Z,22.36
2023-01-18T01:42:24.702Z,22.37
2023-01-18T01:43:24.505Z,22.36
2023-01-18T01:44:25.483Z,22.39
2023-01-18T01:45:24.952Z,22.37
2023-01-18T01:46:24.482Z,22.37
2023-01-18T01:47:25.236Z,22.39
2023-01-18T01:48:25.403Z,22.37
2023-01-18T01:49:25.321Z,22.39
2023-01-18T01:50:24.574Z,22.36
2023-01-18T01:51:25.319Z,22.36
2023-01-18T01:52:25.311Z,22.35
2023-01-18T01:53:25.170Z,22.35
2023-01-18T01:54:24.387Z,22.37
2023-01-18T01:55:24.316Z,22.36
2023-01-18T01:56:24.410Z,22.39
2023-01-18T01:57:24.385Z,22.36
2023-01-18T01:58:24.368Z,22.35
2023-01-18T01:59:25.413Z,22.35
2023-01-18T02:00:25.257Z,22.33
2023-01-18T02:01:25.049Z,22.36
2023-01-18T02:02:24.298Z,22.33
2023-01-18T02:03:25.352Z,22.35
2023-01-18T02:04:24.956Z,22.36
2023-01-18T02:05:24.437Z,22.33
2023-01-18T02:06:24.621Z,22.35
2023-01-18T02:07:24.197Z,22.36
2023-01-18T02:08:24.369Z,22.35
2023-01-18T02:09:24.884Z,22.33
2023-01-18T02:10:24.119Z,22.33
2023-01-18T02:11:24.328Z,22.31
2023-01-18T02:12:24.842Z,22.31
2023-01-18T02:13:24.181Z,22.31
2023-01-18T02:14:24.045Z,22.35
2023-01-18T02:15:24.319Z,22.31
2023-01-18T02:16:25.012Z,22.33
2023-01-18T02:17:24.220Z,22.33
2023-01-18T02:18:25.040Z,22.31
2023-01-18T02:19:23.987Z,22.35
2023-01-18T02:20:24.017Z,22.33
2023-01-18T02:21:23.959Z,22.33
2023-01-18T02:22:23.980Z,22.35
2023-01-18T02:23:25.140Z,22.33
2023-01-18T02:24:24.056Z,22.28
2023-01-18T02:25:24.680Z,22.31
2023-01-18T02:26:23.944Z,22.33
2023-01-18T02:27:23.990Z,22.31
2023-01-18T02:28:23.913Z,22.30
2023-01-18T02:29:23.984Z,22.30
2023-01-18T02:30:24.001Z,22.31
2023-01-18T02:31:24.013Z,22.30
2023-01-18T02:32:24.929Z,22.30
2023-01-18T02:33:23.885Z,22.30
2023-01-18T02:34:23.807Z,22.31
2023-01-18T02:35:23.973Z,22.30
2023-01-18T02:36:23.871Z,22.30
2023-01-18T02:37:23.963Z,22.31
2023-01-18T02:38:23.766Z,22.31
2023-01-18T02:39:24.491Z,22.28
2023-01-18T02:40:23.780Z,22.31
2023-01-18T02:41:23.765Z,22.28
2023-01-18T02:42:23.697Z,22.30
2023-01-18T02:43:23.676Z,22.31
2023-01-18T02:44:24.619Z,22.28
2023-01-18T02:45:23.648Z,22.33
2023-01-18T02:46:24.625Z,22.31
2023-01-18T02:47:23.715Z,22.33
2023-01-18T02:48:23.738Z,22.30
2023-01-18T02:49:24.339Z,22.28
2023-01-18T02:50:24.329Z,22.31
2023-01-18T02:51:23.617Z,22.30
2023-01-18T02:52:23.546Z,22.27
2023-01-18T02:53:23.922Z,22.28
2023-01-18T02:54:24.416Z,22.28
2023-01-18T02:55:23.657Z,22.30
2023-01-18T02:56:23.550Z,22.28
2023-01-18T02:57:23.615Z,22.30
2023-01-18T02:58:23.595Z,22.27
2023-01-18T02:59:23.523Z,22.28
2023-01-18T03:00:23.499Z,22.30
2023-01-18T03:01:23.731Z,22.30
2023-01-18T03:02:23.383Z,22.30
2023-01-18T03:03:23.449Z,22.27
2023-01-18T03:04:23.331Z,22.28
2023-01-18T03:05:23.551Z,22.28
2023-01-18T03:06:23.314Z,22.28
2023-01-18T03:07:23.377Z,22.28
2023-01-18T03:08:23.373Z,22.28
2023-01-18T03:09:23.295Z,22.27
2023-01-18T03:10:24.015Z,22.25
2023-01-18T03:11:23.642Z,22.28
2023-01-18T03:12:23.282Z,22.25
2023-01-18T03:13:24.213Z,22.31
2023-01-18T03:14:24.200Z,22.27
2023-01-18T03:15:23.238Z,22.27
2023-01-18T03:16:24.151Z,22.25
